createdAt,value
2024-01-15T00:00:06.067Z,10.19
2024-01-15T00:02:35.617Z,10.27
2024-01-15T00:05:52.890Z,10.21
2024-01-15T00:08:23.989Z,10.21
2024-01-15T00:10:52.562Z,10.21
2024-01-15T00:13:34.775Z,10.21
2024-01-15T00:16:08.246Z,10.14
2024-01-15T00:18:40.868Z,10.21
2024-01-15T00:21:23.475Z,10.27
2024-01-15T00:24:06.246Z,10.01
2024-01-15T00:26:37.363Z,9.96
2024-01-15T00:29:21.051Z,9.94
2024-01-15T00:31:55.788Z,9.99
2024-01-15T00:34:26.837Z,10.01
2024-01-15T00:36:55.074Z,9.98
2024-01-15T00:39:27.632Z,10.07
2024-01-15T00:41:58.320Z,10.04
2024-01-15T00:44:29.384Z,10.02
2024-01-15T00:46:57.009Z,9.90
2024-01-15T00:49:32.279Z,9.84
2024-01-15T00:52:00.635Z,9.88
2024-01-15T00:54:36.479Z,10.06
2024-01-15T00:57:16.346Z,10.07
2024-01-15T00:59:43.780Z,9.88
2024-01-15T01:02:14.602Z,9.58
2024-01-15T01:04:47.559Z,9.56
2024-01-15T01:07:18.650Z,9.29
2024-01-15T01:09:56.875Z,9.31
2024-01-15T01:12:26.540Z,9.38
2024-01-15T01:14:56.282Z,9.31
2024-01-15T01:17:42.541Z,9.42
2024-01-15T01:23:07.946Z,9.66
2024-01-15T01:25:39.425Z,9.77
2024-01-15T01:28:31.847Z,9.91
2024-01-15T01:31:06.298Z,9.90
2024-01-15T01:36:20.452Z,9.80
2024-01-15T01:39:12.109Z,9.72
2024-01-15T01:41:46.536Z,9.54
2024-01-15T01:44:17.423Z,9.62
2024-01-15T01:46:48.372Z,9.67
2024-01-15T01:49:16.168Z,9.86
2024-01-15T01:51:43.712Z,9.79
2024-01-15T01:54:25.204Z,9.89
2024-01-15T01:56:54.541Z,9.86
2024-01-15T01:59:23.819Z,9.72
2024-01-15T02:01:55.738Z,9.73
2024-01-15T02:04:41.056Z,9.77
2024-01-15T02:07:11.897Z,9.82
2024-01-15T02:09:48.000Z,9.79
2024-01-15T02:12:17.213Z,9.66
2024-01-15T02:14:47.116Z,9.63
2024-01-15T02:17:27.013Z,9.65
2024-01-15T02:19:56.326Z,9.69
2024-01-15T02:25:47.010Z,9.88
2024-01-15T02:28:32.917Z,9.87
2024-01-15T02:31:08.038Z,9.93
2024-01-15T02:33:37.035Z,10.08
2024-01-15T02:36:18.512Z,10.03
2024-01-15T02:38:50.345Z,9.74
2024-01-15T02:41:28.437Z,9.65
2024-01-15T02:44:00.784Z,9.61
2024-01-15T02:46:28.190Z,9.61
2024-01-15T02:49:08.053Z,9.64
2024-01-15T02:51:37.764Z,9.64
2024-01-15T02:54:06.938Z,9.61
2024-01-15T02:56:36.137Z,9.73
2024-01-15T02:59:08.675Z,9.72
2024-01-15T03:01:38.448Z,9.73
2024-01-15T03:04:06.197Z,9.74
2024-01-15T03:06:33.551Z,9.70
2024-01-15T03:12:15.286Z,9.39
2024-01-15T03:14:48.486Z,9.35
2024-01-15T03:17:19.740Z,9.49
2024-01-15T03:20:03.692Z,9.26
2024-01-15T03:22:38.259Z,9.31
2024-01-15T03:25:08.813Z,9.44
2024-01-15T03:27:41.906Z,9.48
2024-01-15T03:30:16.042Z,9.87
2024-01-15T03:32:43.232Z,9.63
2024-01-15T03:35:18.572Z,9.56
2024-01-15T03:37:49.678Z,9.53
2024-01-15T03:40:24.101Z,9.43
2024-01-15T03:45:32.262Z,9.18
2024-01-15T03:48:07.576Z,9.32
2024-01-15T03:50:43.836Z,9.16
2024-01-15T03:53:14.158Z,9.19
2024-01-15T03:55:47.963Z,9.10
2024-01-15T03:58:19.538Z,9.19
2024-01-15T04:01:02.898Z,9.13
2024-01-15T04:03:51.792Z,9.02
2024-01-15T04:06:18.978Z,9.02
2024-01-15T04:08:52.598Z,9.00
2024-01-15T04:11:42.328Z,8.95
2024-01-15T04:14:16.574Z,9.00
2024-01-15T04:16:49.168Z,9.19
2024-01-15T04:19:24.005Z,9.56
2024-01-15T04:21:53.033Z,9.73
2024-01-15T04:24:23.044Z,9.42
2024-01-15T04:29:34.640Z,9.35
2024-01-15T04:32:03.095Z,9.54
2024-01-15T04:34:37.873Z,9.16
2024-01-15T04:37:08.619Z,9.01
2024-01-15T04:39:39.697Z,9.17
2024-01-15T04:42:10.771Z,9.34
2024-01-15T04:44:49.046Z,9.48
2024-01-15T04:47:26.005Z,9.56
2024-01-15T04:49:56.813Z,9.70
2024-01-15T04:52:24.895Z,9.54
2024-01-15T04:55:05.722Z,9.29
2024-01-15T04:57:36.016Z,9.26
2024-01-15T05:00:13.827Z,9.23
2024-01-15T05:02:48.451Z,9.36
2024-01-15T05:05:23.519Z,9.11
2024-01-15T05:10:50.571Z,9.06
2024-01-15T05:13:18.472Z,9.09
2024-01-15T05:18:30.764Z,9.30
2024-01-15T05:20:59.805Z,9.24
2024-01-15T05:23:30.364Z,9.30
2024-01-15T05:25:57.785Z,9.47
2024-01-15T05:28:32.264Z,9.24
2024-01-15T05:31:05.394Z,9.21
2024-01-15T05:33:34.442Z,9.42
2024-01-15T05:36:02.359Z,9.50
2024-01-15T05:38:39.952Z,9.42
2024-01-15T05:41:09.168Z,9.38
2024-01-15T05:43:38.687Z,9.58
2024-01-15T05:46:19.172Z,9.43
2024-01-15T05:49:10.272Z,9.27
2024-01-15T05:51:40.395Z,9.40
2024-01-15T05:54:07.873Z,9.35
2024-01-15T05:56:42.155Z,9.18
2024-01-15T05:59:20.648Z,9.15
2024-01-15T06:01:58.873Z,9.36
2024-01-15T06:04:31.326Z,9.56
2024-01-15T06:07:06.018Z,9.74
2024-01-15T06:09:37.317Z,9.73
2024-01-15T06:12:06.280Z,9.69
2024-01-15T06:14:37.274Z,9.44
2024-01-15T06:17:07.903Z,9.31
2024-01-15T06:19:52.443Z,9.30
2024-01-15T06:22:23.238Z,9.43
2024-01-15T06:24:56.028Z,9.44
2024-01-15T06:27:29.471Z,9.37
2024-01-15T06:30:08.329Z,9.46
2024-01-15T06:32:45.278Z,9.38
2024-01-15T06:35:22.646Z,9.19
2024-01-15T06:37:58.183Z,9.05
2024-01-15T06:40:30.084Z,9.11
2024-01-15T06:43:22.685Z,9.13
2024-01-15T06:46:12.046Z,9.16
2024-01-15T06:51:26.276Z,9.21
2024-01-15T06:53:53.461Z,9.11
2024-01-15T06:59:01.209Z,8.98
2024-01-15T07:01:31.780Z,8.93
2024-01-15T07:04:03.734Z,9.12
2024-01-15T07:06:32.087Z,9.22
2024-01-15T07:09:30.083Z,9.36
2024-01-15T07:11:50.335Z,9.54
2024-01-15T07:14:19.152Z,9.53
2024-01-15T07:16:57.636Z,9.52
2024-01-15T07:19:31.311Z,9.41
2024-01-15T07:22:13.552Z,9.40
2024-01-15T07:25:01.925Z,9.45
2024-01-15T07:27:29.143Z,9.49
2024-01-15T07:30:07.160Z,9.51
2024-01-15T07:32:35.673Z,9.54
2024-01-15T07:35:07.183Z,9.48
2024-01-15T07:37:35.226Z,9.62
2024-01-15T07:46:14.359Z,9.81
2024-01-15T07:48:44.452Z,9.80
2024-01-15T07:51:12.623Z,9.72
2024-01-15T07:53:40.191Z,9.73
2024-01-15T07:56:11.723Z,9.73
2024-01-15T07:58:45.980Z,9.83
2024-01-15T08:01:18.887Z,9.85
2024-01-15T08:03:57.194Z,9.82
2024-01-15T08:06:35.390Z,9.81
2024-01-15T08:09:06.268Z,9.82
2024-01-15T08:11:33.466Z,9.80
2024-01-15T08:14:02.359Z,9.81
2024-01-15T08:16:30.429Z,9.82
2024-01-15T08:19:14.379Z,9.83
2024-01-15T08:21:49.167Z,10.04
2024-01-15T08:24:21.263Z,10.10
2024-01-15T08:29:39.956Z,10.00
2024-01-15T08:32:07.811Z,10.06
2024-01-15T08:34:53.860Z,10.12
2024-01-15T08:37:42.045Z,10.28
2024-01-15T08:40:10.168Z,10.35
2024-01-15T08:42:51.923Z,10.43
2024-01-15T08:45:24.299Z,10.40
2024-01-15T08:47:54.153Z,10.40
2024-01-15T08:50:21.613Z,10.41
2024-01-15T08:52:49.667Z,10.43
2024-01-15T08:55:19.452Z,10.56
2024-01-15T08:57:47.124Z,10.88
2024-01-15T09:00:16.951Z,11.35
2024-01-15T09:03:04.076Z,11.57
2024-01-15T09:05:42.414Z,11.93
2024-01-15T09:08:10.452Z,12.11
2024-01-15T09:10:44.976Z,12.13
2024-01-15T09:13:17.877Z,12.04
2024-01-15T09:15:47.630Z,11.65
2024-01-15T09:18:17.102Z,11.67
2024-01-15T09:20:58.790Z,12.12
2024-01-15T09:23:29.726Z,12.30
2024-01-15T09:26:07.707Z,12.04
2024-01-15T09:28:40.264Z,11.83
2024-01-15T09:31:09.798Z,12.01
2024-01-15T09:33:37.640Z,12.04
2024-01-15T09:36:10.970Z,11.91
2024-01-15T09:38:44.254Z,11.96
2024-01-15T09:41:11.818Z,11.99
2024-01-15T09:44:00.780Z,12.08
2024-01-15T09:52:11.926Z,12.18
2024-01-15T09:54:49.820Z,12.22
2024-01-15T09:57:20.493Z,12.19
2024-01-15T09:59:50.387Z,12.23
2024-01-15T10:02:31.846Z,12.23
2024-01-15T10:05:01.709Z,12.18
2024-01-15T10:08:02.505Z,12.09
2024-01-15T10:10:20.612Z,12.01
2024-01-15T10:12:50.158Z,11.95
2024-01-15T10:17:59.460Z,12.00
2024-01-15T10:20:51.911Z,12.02
2024-01-15T10:23:26.477Z,12.17
2024-01-15T10:25:54.192Z,12.24
2024-01-15T10:28:29.889Z,12.25
2024-01-15T10:31:02.494Z,12.27
2024-01-15T10:33:33.382Z,12.18
2024-01-15T10:36:11.319Z,12.21
2024-01-15T10:38:47.020Z,12.23
2024-01-15T10:41:14.423Z,12.21
2024-01-15T10:43:47.774Z,12.12
2024-01-15T10:46:20.681Z,12.05
2024-01-15T10:48:52.661Z,12.00
2024-01-15T10:51:27.638Z,11.93
2024-01-15T10:53:59.613Z,12.00
2024-01-15T10:56:49.822Z,11.97
2024-01-15T10:59:38.670Z,11.93
2024-01-15T11:04:50.374Z,11.96
2024-01-15T11:10:48.501Z,11.98
2024-01-15T11:13:53.090Z,12.02
2024-01-15T11:16:20.931Z,12.06
2024-01-15T11:19:20.374Z,12.09
2024-01-15T11:21:50.096Z,12.10
2024-01-15T11:24:57.343Z,12.09
2024-01-15T11:27:53.938Z,12.11
2024-01-15T11:30:30.484Z,12.12
2024-01-15T11:32:58.239Z,12.13
2024-01-15T11:35:52.088Z,12.15
2024-01-15T11:38:31.680Z,12.15
2024-01-15T11:41:03.539Z,12.16
2024-01-15T11:43:32.996Z,12.07
2024-01-15T11:46:07.050Z,12.01
2024-01-15T11:49:11.689Z,12.04
2024-01-15T11:51:55.775Z,12.08
2024-01-15T11:54:38.158Z,12.10
2024-01-15T11:57:16.439Z,12.14
2024-01-15T11:59:48.767Z,12.09
2024-01-15T12:02:24.094Z,12.09
2024-01-15T12:05:00.291Z,12.12
2024-01-15T12:07:56.019Z,12.20
2024-01-15T12:10:32.427Z,12.24
2024-01-15T12:13:37.110Z,12.34
2024-01-15T12:16:25.454Z,12.45
2024-01-15T12:19:07.898Z,12.61
2024-01-15T12:21:48.723Z,12.77
2024-01-15T12:24:20.957Z,12.78
2024-01-15T12:27:00.194Z,12.72
2024-01-15T12:29:31.034Z,12.82
2024-01-15T12:32:03.192Z,12.98
2024-01-15T12:34:46.206Z,13.02
2024-01-15T12:37:17.310Z,13.26
2024-01-15T12:39:52.951Z,13.34
2024-01-15T12:42:28.055Z,13.32
2024-01-15T12:45:08.873Z,13.23
2024-01-15T12:47:38.547Z,13.30
2024-01-15T12:50:20.086Z,13.47
2024-01-15T12:52:57.834Z,13.49
2024-01-15T12:55:30.587Z,13.43
2024-01-15T12:57:59.828Z,13.48
2024-01-15T13:00:27.857Z,13.65
2024-01-15T13:03:03.832Z,13.72
2024-01-15T13:05:54.098Z,13.84
2024-01-15T13:11:02.382Z,14.08
2024-01-15T13:13:39.011Z,14.13
2024-01-15T13:16:10.235Z,14.12
2024-01-15T13:18:41.066Z,13.93
2024-01-15T13:21:14.452Z,14.07
2024-01-15T13:23:42.976Z,14.28
2024-01-15T13:26:18.955Z,14.52
2024-01-15T13:28:46.693Z,14.54
2024-01-15T13:31:14.209Z,14.55
2024-01-15T13:33:48.059Z,14.49
2024-01-15T13:36:20.275Z,14.46
2024-01-15T13:38:59.115Z,14.41
2024-01-15T13:41:28.664Z,14.42
2024-01-15T13:43:59.697Z,14.30
2024-01-15T13:46:29.202Z,14.15
2024-01-15T13:49:01.161Z,14.07
2024-01-15T13:54:34.089Z,14.22
2024-01-15T13:57:16.585Z,14.63
2024-01-15T13:59:46.712Z,15.37
2024-01-15T14:02:24.980Z,15.27
2024-01-15T14:05:02.789Z,15.29
2024-01-15T14:07:34.477Z,15.40
2024-01-15T14:10:08.099Z,15.93
2024-01-15T14:12:52.351Z,16.08
2024-01-15T14:15:24.581Z,15.45
2024-01-15T14:18:09.181Z,15.25
2024-01-15T14:20:57.893Z,15.08
2024-01-15T14:23:43.181Z,15.02
2024-01-15T14:26:15.411Z,15.11
2024-01-15T14:28:44.536Z,15.16
2024-01-15T14:31:36.573Z,15.10
2024-01-15T14:34:15.121Z,14.91
2024-01-15T14:36:49.434Z,14.93
2024-01-15T14:42:13.891Z,14.91
2024-01-15T14:45:00.127Z,14.80
2024-01-15T14:47:28.610Z,14.81
2024-01-15T14:52:41.015Z,14.96
2024-01-15T14:55:11.249Z,15.09
2024-01-15T14:57:43.756Z,15.22
2024-01-15T15:00:13.738Z,15.22
2024-01-15T15:02:41.457Z,14.93
2024-01-15T15:05:22.312Z,14.94
2024-01-15T15:07:50.180Z,14.95
2024-01-15T15:10:21.986Z,15.05
2024-01-15T15:12:54.936Z,15.10
2024-01-15T15:15:26.165Z,15.08
2024-01-15T15:17:53.365Z,14.94
2024-01-15T15:20:38.629Z,14.92
2024-01-15T15:23:09.560Z,14.85
2024-01-15T15:25:44.986Z,14.91
2024-01-15T15:28:16.916Z,14.96
2024-01-15T15:30:44.317Z,14.99
2024-01-15T15:33:14.106Z,14.99
2024-01-15T15:35:42.380Z,14.93
2024-01-15T15:38:17.131Z,14.92
2024-01-15T15:40:47.613Z,14.88
2024-01-15T15:43:19.440Z,14.68
2024-01-15T15:45:57.341Z,14.58
2024-01-15T15:48:32.041Z,14.59
2024-01-15T15:51:04.032Z,14.52
2024-01-15T15:53:35.661Z,14.49
2024-01-15T15:58:58.107Z,14.29
2024-01-15T16:01:25.984Z,14.18
2024-01-15T16:03:54.686Z,14.12
2024-01-15T16:06:32.447Z,14.02
2024-01-15T16:09:21.669Z,13.92
2024-01-15T16:11:51.020Z,13.94
2024-01-15T16:14:23.839Z,13.93
2024-01-15T16:23:15.498Z,13.86
2024-01-15T16:23:30.262Z,13.83
2024-01-15T16:24:02.354Z,13.73
2024-01-15T16:29:04.712Z,13.65
2024-01-15T16:31:54.284Z,13.62
2024-01-15T16:34:24.320Z,13.65
2024-01-15T16:36:54.733Z,13.58
2024-01-15T16:39:36.187Z,13.61
2024-01-15T16:44:46.750Z,13.67
2024-01-15T16:47:13.981Z,13.62
2024-01-15T16:49:50.508Z,13.59
2024-01-15T16:52:27.295Z,13.62
2024-01-15T16:54:55.933Z,13.56
2024-01-15T16:57:26.915Z,13.50
2024-01-15T16:59:56.942Z,13.43
2024-01-15T17:02:26.516Z,13.34
2024-01-15T17:04:57.098Z,13.26
2024-01-15T17:07:29.568Z,13.31
2024-01-15T17:10:01.554Z,13.26
2024-01-15T17:12:36.761Z,13.08
2024-01-15T17:15:09.417Z,12.96
2024-01-15T17:17:42.263Z,12.94
2024-01-15T17:20:23.721Z,12.78
2024-01-15T17:22:58.362Z,12.63
2024-01-15T17:25:30.254Z,12.83
2024-01-15T17:28:05.323Z,12.65
2024-01-15T17:30:38.186Z,12.54
2024-01-15T17:33:08.341Z,12.60
2024-01-15T17:35:46.765Z,12.63
2024-01-15T17:38:22.270Z,12.79
2024-01-15T17:40:53.797Z,12.76
2024-01-15T17:43:28.200Z,12.63
2024-01-15T17:46:02.094Z,12.64
2024-01-15T17:48:38.922Z,12.66
2024-01-15T17:51:08.431Z,12.49
2024-01-15T17:53:37.419Z,12.27
2024-01-15T17:56:13.143Z,12.21
2024-01-15T17:58:48.747Z,12.10
2024-01-15T18:01:19.610Z,11.93
2024-01-15T18:03:48.860Z,11.87
2024-01-15T18:06:17.437Z,11.98
2024-01-15T18:08:47.870Z,11.86
2024-01-15T18:11:20.678Z,11.80
2024-01-15T18:13:53.140Z,11.69
2024-01-15T18:16:35.338Z,11.80
2024-01-15T18:19:08.750Z,11.72
2024-01-15T18:21:43.367Z,11.49
2024-01-15T18:24:28.901Z,11.33
2024-01-15T18:26:57.674Z,11.31
2024-01-15T18:29:32.683Z,11.16
2024-01-15T18:32:10.707Z,11.22
2024-01-15T18:34:39.168Z,11.06
2024-01-15T18:37:13.731Z,10.84
2024-01-15T18:40:12.846Z,10.73
2024-01-15T18:42:46.628Z,11.03
2024-01-15T18:45:38.210Z,11.08
2024-01-15T18:48:08.913Z,10.88
2024-01-15T18:50:37.976Z,10.75
2024-01-15T18:53:15.980Z,10.95
2024-01-15T18:55:45.026Z,10.95
2024-01-15T18:58:20.569Z,11.01
2024-01-15T19:00:53.762Z,11.14
2024-01-15T19:03:30.982Z,11.17
2024-01-15T19:06:10.051Z,11.25
2024-01-15T19:08:37.371Z,11.36
2024-01-15T19:11:04.993Z,11.37
2024-01-15T19:16:16.415Z,11.22
2024-01-15T19:18:54.438Z,11.22
2024-01-15T19:21:29.880Z,11.15
2024-01-15T19:24:23.975Z,11.13
2024-01-15T19:26:57.436Z,11.27
2024-01-15T19:29:30.603Z,11.58
2024-01-15T19:32:00.052Z,11.71
2024-01-15T19:34:28.938Z,11.77
2024-01-15T19:36:57.445Z,11.64
2024-01-15T19:39:29.794Z,11.57
2024-01-15T19:42:06.286Z,11.51
2024-01-15T19:44:56.646Z,11.38
2024-01-15T19:47:27.962Z,11.33
2024-01-15T19:49:57.069Z,11.21
2024-01-15T19:52:29.082Z,11.50
2024-01-15T19:55:00.781Z,11.53
2024-01-15T19:57:28.856Z,11.50
2024-01-15T19:59:59.649Z,11.32
2024-01-15T20:02:35.137Z,11.14
2024-01-15T20:05:15.157Z,11.12
2024-01-15T20:07:43.513Z,11.15
2024-01-15T20:10:23.359Z,11.22
2024-01-15T20:15:32.519Z,11.29
2024-01-15T20:18:11.985Z,11.22
2024-01-15T20:20:49.948Z,11.18
2024-01-15T20:23:19.422Z,11.26
2024-01-15T20:25:50.607Z,11.31
2024-01-15T20:28:17.996Z,11.35
2024-01-15T20:30:45.740Z,11.25
2024-01-15T20:38:41.635Z,11.06
2024-01-15T20:41:35.494Z,11.04
2024-01-15T20:44:08.389Z,10.97
2024-01-15T20:46:38.661Z,11.07
2024-01-15T20:49:14.449Z,10.99
2024-01-15T20:51:49.448Z,10.80
2024-01-15T20:54:18.964Z,10.54
2024-01-15T20:56:48.344Z,10.42
2024-01-15T20:59:20.903Z,10.45
2024-01-15T21:04:32.731Z,10.51
2024-01-15T21:07:01.330Z,10.55
2024-01-15T21:09:30.536Z,10.64
2024-01-15T21:11:57.713Z,10.62
2024-01-15T21:14:26.662Z,10.70
2024-01-15T21:17:03.237Z,10.72
2024-01-15T21:22:12.125Z,10.61
2024-01-15T21:24:41.624Z,10.61
2024-01-15T21:27:13.131Z,10.43
2024-01-15T21:29:44.765Z,10.42
2024-01-15T21:32:12.603Z,10.47
2024-01-15T21:35:03.600Z,10.48
2024-01-15T21:40:44.870Z,10.52
2024-01-15T21:43:08.996Z,10.56
2024-01-15T21:45:37.682Z,10.47
2024-01-15T21:48:29.689Z,10.51
2024-01-15T21:50:59.324Z,10.58
2024-01-15T21:53:31.438Z,10.67
2024-01-15T21:56:03.831Z,10.76
2024-01-15T21:58:40.584Z,10.88
2024-01-15T22:01:09.965Z,11.02
2024-01-15T22:03:46.946Z,11.05
2024-01-15T22:06:19.147Z,11.05
2024-01-15T22:08:52.652Z,10.98
2024-01-15T22:11:38.646Z,10.93
2024-01-15T22:16:51.486Z,10.87
2024-01-15T22:19:25.928Z,10.83
2024-01-15T22:21:58.493Z,10.72
2024-01-15T22:24:28.180Z,10.76
2024-01-15T22:27:23.262Z,10.82
2024-01-15T22:29:58.248Z,10.88
2024-01-15T22:32:32.670Z,11.01
2024-01-15T22:35:04.627Z,11.08
2024-01-15T22:37:39.091Z,11.15
2024-01-15T22:40:21.885Z,11.15
2024-01-15T22:43:00.549Z,11.08
2024-01-15T22:45:32.635Z,11.06
2024-01-15T22:48:00.876Z,11.06
2024-01-15T22:50:35.253Z,11.13
2024-01-15T22:53:17.506Z,11.16
2024-01-15T22:55:44.998Z,11.20
2024-01-15T22:58:24.312Z,11.21
2024-01-15T23:00:53.620Z,11.17
2024-01-15T23:03:20.964Z,11.19
2024-01-15T23:05:58.623Z,11.21
2024-01-15T23:08:31.328Z,11.31
2024-01-15T23:11:02.275Z,11.39
2024-01-15T23:13:29.541Z,11.43
2024-01-15T23:15:56.700Z,11.39
2024-01-15T23:18:48.012Z,11.34
2024-01-15T23:21:15.300Z,11.34
2024-01-15T23:23:43.310Z,11.30
2024-01-15T23:26:17.544Z,11.30
2024-01-15T23:28:51.355Z,11.27
2024-01-15T23:31:23.310Z,11.34
2024-01-15T23:33:53.626Z,11.33
2024-01-15T23:36:20.975Z,11.39
2024-01-15T23:38:51.921Z,11.32
2024-01-15T23:41:22.793Z,11.34
2024-01-15T23:43:55.640Z,11.39
2024-01-15T23:46:26.169Z,11.39
2024-01-15T23:49:02.394Z,11.39
2024-01-15T23:51:43.615Z,11.35
2024-01-15T23:54:19.997Z,11.43
2024-01-15T23:56:50.639Z,11.47
2024-01-15T23:59:31.364Z,11.45
